sensor_id;sensor_type;location;lat;lon;timestamp;P1;durP1;ratioP1;P2;durP2;ratioP2
57433;SDS011;43277;52.672;6.984;2023-07-20T00:01:02;8.20;;;4.10;;
57433;SDS011;43277;52.672;6.984;2023-07-20T00:03:27;9.40;;;4.90;;
57433;SDS011;43277;52.672;6.984;2023-07-20T00:05:53;10.40;;;5.25;;
57433;SDS011;43277;52.672;6.984;2023-07-20T00:08:18;8.25;;;5.50;;
57433;SDS011;43277;52.672;6.984;2023-07-20T00:10:44;7.95;;;4.43;;
57433;SDS011;43277;52.672;6.984;2023-07-20T00:13:10;7.00;;;5.30;;
57433;SDS011;43277;52.672;6.984;2023-07-20T00:15:36;9.32;;;4.68;;
57433;SDS011;43277;52.672;6.984;2023-07-20T00:18:03;13.05;;;5.15;;
57433;SDS011;43277;52.672;6.984;2023-07-20T00:20:29;10.65;;;4.68;;
57433;SDS011;43277;52.672;6.984;2023-07-20T00:22:54;7.60;;;3.60;;
57433;SDS011;43277;52.672;6.984;2023-07-20T00:25:22;7.78;;;3.17;;
57433;SDS011;43277;52.672;6.984;2023-07-20T00:27:48;8.35;;;3.30;;
57433;SDS011;43277;52.672;6.984;2023-07-20T00:30:14;7.25;;;4.18;;
57433;SDS011;43277;52.672;6.984;2023-07-20T00:32:41;8.35;;;4.10;;
57433;SDS011;43277;52.672;6.984;2023-07-20T00:35:07;7.65;;;3.25;;
57433;SDS011;43277;52.672;6.984;2023-07-20T00:37:33;6.30;;;3.05;;
57433;SDS011;43277;52.672;6.984;2023-07-20T00:39:58;12.32;;;4.28;;
57433;SDS011;43277;52.672;6.984;2023-07-20T00:42:24;7.18;;;2.85;;
57433;SDS011;43277;52.672;6.984;2023-07-20T00:44:49;11.73;;;4.25;;
57433;SDS011;43277;52.672;6.984;2023-07-20T00:47:15;8.13;;;3.65;;
57433;SDS011;43277;52.672;6.984;2023-07-20T00:49:41;11.98;;;4.57;;
57433;SDS011;43277;52.672;6.984;2023-07-20T00:52:07;6.05;;;2.83;;
57433;SDS011;43277;52.672;6.984;2023-07-20T00:54:35;8.82;;;3.25;;
57433;SDS011;43277;52.672;6.984;2023-07-20T00:57:02;13.48;;;4.68;;
57433;SDS011;43277;52.672;6.984;2023-07-20T00:59:29;5.35;;;2.83;;
57433;SDS011;43277;52.672;6.984;2023-07-20T01:01:55;6.22;;;3.30;;
57433;SDS011;43277;52.672;6.984;2023-07-20T01:04:20;11.88;;;4.25;;
57433;SDS011;43277;52.672;6.984;2023-07-20T01:09:48;8.07;;;5.65;;
57433;SDS011;43277;52.672;6.984;2023-07-20T01:12:27;9.10;;;5.22;;
57433;SDS011;43277;52.672;6.984;2023-07-20T01:15:01;13.18;;;6.35;;
57433;SDS011;43277;52.672;6.984;2023-07-20T01:17:27;16.63;;;8.07;;
57433;SDS011;43277;52.672;6.984;2023-07-20T01:19:52;9.82;;;6.78;;
57433;SDS011;43277;52.672;6.984;2023-07-20T01:25:25;9.30;;;6.10;;
57433;SDS011;43277;52.672;6.984;2023-07-20T01:33:35;5.82;;;3.55;;
57433;SDS011;43277;52.672;6.984;2023-07-20T01:36:01;10.50;;;6.68;;
57433;SDS011;43277;52.672;6.984;2023-07-20T01:38:27;5.72;;;3.78;;
57433;SDS011;43277;52.672;6.984;2023-07-20T01:40:54;9.07;;;6.55;;
57433;SDS011;43277;52.672;6.984;2023-07-20T01:43:20;8.70;;;6.43;;
57433;SDS011;43277;52.672;6.984;2023-07-20T01:45:46;8.52;;;5.45;;
57433;SDS011;43277;52.672;6.984;2023-07-20T01:48:12;18.63;;;9.10;;
57433;SDS011;43277;52.672;6.984;2023-07-20T01:50:37;8.77;;;6.50;;
57433;SDS011;43277;52.672;6.984;2023-07-20T01:53:03;10.65;;;7.25;;
57433;SDS011;43277;52.672;6.984;2023-07-20T01:55:29;11.52;;;6.85;;
57433;SDS011;43277;52.672;6.984;2023-07-20T01:57:55;8.73;;;6.43;;
57433;SDS011;43277;52.672;6.984;2023-07-20T02:00:20;6.95;;;5.45;;
57433;SDS011;43277;52.672;6.984;2023-07-20T02:02:49;9.95;;;6.97;;
57433;SDS011;43277;52.672;6.984;2023-07-20T02:05:15;11.38;;;7.90;;
57433;SDS011;43277;52.672;6.984;2023-07-20T02:07:41;13.15;;;10.23;;
57433;SDS011;43277;52.672;6.984;2023-07-20T02:10:07;8.80;;;6.65;;
57433;SDS011;43277;52.672;6.984;2023-07-20T02:12:33;9.82;;;6.63;;
57433;SDS011;43277;52.672;6.984;2023-07-20T02:14:58;11.95;;;7.95;;
57433;SDS011;43277;52.672;6.984;2023-07-20T02:17:24;7.97;;;6.07;;
57433;SDS011;43277;52.672;6.984;2023-07-20T02:19:52;15.50;;;9.15;;
57433;SDS011;43277;52.672;6.984;2023-07-20T02:22:19;11.57;;;8.90;;
57433;SDS011;43277;52.672;6.984;2023-07-20T02:24:45;11.00;;;7.55;;
57433;SDS011;43277;52.672;6.984;2023-07-20T02:27:11;9.82;;;6.22;;
57433;SDS011;43277;52.672;6.984;2023-07-20T02:29:37;12.35;;;8.35;;
57433;SDS011;43277;52.672;6.984;2023-07-20T02:32:03;11.98;;;8.73;;
57433;SDS011;43277;52.672;6.984;2023-07-20T02:34:29;17.35;;;11.57;;
57433;SDS011;43277;52.672;6.984;2023-07-20T02:36:55;16.02;;;11.77;;
57433;SDS011;43277;52.672;6.984;2023-07-20T02:41:54;13.57;;;10.07;;
57433;SDS011;43277;52.672;6.984;2023-07-20T02:44:20;16.35;;;11.98;;
57433;SDS011;43277;52.672;6.984;2023-07-20T02:46:45;20.40;;;14.40;;
57433;SDS011;43277;52.672;6.984;2023-07-20T02:49:11;13.10;;;9.80;;
57433;SDS011;43277;52.672;6.984;2023-07-20T02:51:37;14.75;;;10.30;;
57433;SDS011;43277;52.672;6.984;2023-07-20T02:54:03;13.18;;;8.90;;
57433;SDS011;43277;52.672;6.984;2023-07-20T02:56:28;9.27;;;7.95;;
57433;SDS011;43277;52.672;6.984;2023-07-20T02:58:54;10.63;;;8.43;;
57433;SDS011;43277;52.672;6.984;2023-07-20T03:01:20;16.83;;;11.98;;
57433;SDS011;43277;52.672;6.984;2023-07-20T03:03:46;17.35;;;12.48;;
57433;SDS011;43277;52.672;6.984;2023-07-20T03:06:15;13.65;;;10.35;;
57433;SDS011;43277;52.672;6.984;2023-07-20T03:08:42;12.10;;;9.30;;
57433;SDS011;43277;52.672;6.984;2023-07-20T03:13:39;18.30;;;12.52;;
57433;SDS011;43277;52.672;6.984;2023-07-20T03:16:04;11.20;;;9.32;;
57433;SDS011;43277;52.672;6.984;2023-07-20T03:18:30;17.50;;;13.32;;
57433;SDS011;43277;52.672;6.984;2023-07-20T03:20:55;11.25;;;8.20;;
57433;SDS011;43277;52.672;6.984;2023-07-20T03:23:21;10.80;;;8.00;;
57433;SDS011;43277;52.672;6.984;2023-07-20T03:25:47;13.10;;;9.60;;
57433;SDS011;43277;52.672;6.984;2023-07-20T03:28:13;10.88;;;9.43;;
57433;SDS011;43277;52.672;6.984;2023-07-20T03:30:38;11.85;;;10.52;;
57433;SDS011;43277;52.672;6.984;2023-07-20T03:33:04;10.63;;;9.13;;
57433;SDS011;43277;52.672;6.984;2023-07-20T03:35:29;9.82;;;8.30;;
57433;SDS011;43277;52.672;6.984;2023-07-20T03:37:56;18.75;;;15.18;;
57433;SDS011;43277;52.672;6.984;2023-07-20T03:40:22;12.27;;;8.75;;
57433;SDS011;43277;52.672;6.984;2023-07-20T03:42:48;15.07;;;13.43;;
57433;SDS011;43277;52.672;6.984;2023-07-20T03:45:13;35.55;;;22.58;;
57433;SDS011;43277;52.672;6.984;2023-07-20T03:47:39;26.42;;;18.40;;
57433;SDS011;43277;52.672;6.984;2023-07-20T03:50:05;16.60;;;14.70;;
57433;SDS011;43277;52.672;6.984;2023-07-20T03:52:31;16.33;;;12.77;;
57433;SDS011;43277;52.672;6.984;2023-07-20T03:54:57;10.60;;;6.57;;
57433;SDS011;43277;52.672;6.984;2023-07-20T03:57:23;23.25;;;18.15;;
57433;SDS011;43277;52.672;6.984;2023-07-20T03:59:48;22.15;;;15.43;;
57433;SDS011;43277;52.672;6.984;2023-07-20T04:02:14;32.85;;;18.15;;
57433;SDS011;43277;52.672;6.984;2023-07-20T04:04:39;17.00;;;13.80;;
57433;SDS011;43277;52.672;6.984;2023-07-20T04:07:05;13.18;;;11.52;;
57433;SDS011;43277;52.672;6.984;2023-07-20T04:09:32;13.82;;;11.63;;
57433;SDS011;43277;52.672;6.984;2023-07-20T04:11:58;14.25;;;10.52;;
57433;SDS011;43277;52.672;6.984;2023-07-20T04:14:24;13.75;;;11.70;;
57433;SDS011;43277;52.672;6.984;2023-07-20T04:16:50;17.30;;;13.75;;
57433;SDS011;43277;52.672;6.984;2023-07-20T04:19:16;15.43;;;13.25;;
57433;SDS011;43277;52.672;6.984;2023-07-20T04:21:43;16.10;;;13.75;;
57433;SDS011;43277;52.672;6.984;2023-07-20T04:24:09;12.65;;;10.15;;
57433;SDS011;43277;52.672;6.984;2023-07-20T04:26:34;15.80;;;12.70;;
57433;SDS011;43277;52.672;6.984;2023-07-20T04:29:00;12.65;;;9.23;;
57433;SDS011;43277;52.672;6.984;2023-07-20T04:31:26;10.73;;;9.60;;
57433;SDS011;43277;52.672;6.984;2023-07-20T04:33:51;12.00;;;10.55;;
57433;SDS011;43277;52.672;6.984;2023-07-20T04:36:17;14.88;;;13.20;;
57433;SDS011;43277;52.672;6.984;2023-07-20T04:38:47;11.55;;;10.27;;
57433;SDS011;43277;52.672;6.984;2023-07-20T04:41:13;12.77;;;10.82;;
57433;SDS011;43277;52.672;6.984;2023-07-20T04:43:42;12.77;;;10.32;;
57433;SDS011;43277;52.672;6.984;2023-07-20T04:46:09;16.70;;;14.00;;
57433;SDS011;43277;52.672;6.984;2023-07-20T04:48:35;12.85;;;10.18;;
57433;SDS011;43277;52.672;6.984;2023-07-20T04:51:00;11.80;;;10.43;;
57433;SDS011;43277;52.672;6.984;2023-07-20T04:53:26;12.88;;;11.48;;
57433;SDS011;43277;52.672;6.984;2023-07-20T04:55:52;11.70;;;10.50;;
57433;SDS011;43277;52.672;6.984;2023-07-20T04:58:19;14.98;;;10.93;;
57433;SDS011;43277;52.672;6.984;2023-07-20T05:00:48;12.02;;;9.73;;
57433;SDS011;43277;52.672;6.984;2023-07-20T05:03:15;14.25;;;10.73;;
57433;SDS011;43277;52.672;6.984;2023-07-20T05:05:41;13.00;;;11.10;;
57433;SDS011;43277;52.672;6.984;2023-07-20T05:08:06;14.35;;;11.60;;
57433;SDS011;43277;52.672;6.984;2023-07-20T05:10:32;18.95;;;13.40;;
57433;SDS011;43277;52.672;6.984;2023-07-20T05:12:58;19.15;;;14.38;;
57433;SDS011;43277;52.672;6.984;2023-07-20T05:15:24;15.55;;;12.32;;
57433;SDS011;43277;52.672;6.984;2023-07-20T05:17:50;15.10;;;11.57;;
57433;SDS011;43277;52.672;6.984;2023-07-20T05:20:16;15.50;;;12.25;;
57433;SDS011;43277;52.672;6.984;2023-07-20T05:22:42;12.68;;;10.43;;
57433;SDS011;43277;52.672;6.984;2023-07-20T05:25:08;10.80;;;8.95;;
57433;SDS011;43277;52.672;6.984;2023-07-20T05:27:39;11.13;;;7.68;;
57433;SDS011;43277;52.672;6.984;2023-07-20T05:30:05;9.93;;;7.18;;
57433;SDS011;43277;52.672;6.984;2023-07-20T05:32:32;13.82;;;10.18;;
57433;SDS011;43277;52.672;6.984;2023-07-20T05:34:58;8.40;;;7.20;;
57433;SDS011;43277;52.672;6.984;2023-07-20T05:37:23;12.40;;;9.55;;
57433;SDS011;43277;52.672;6.984;2023-07-20T05:39:49;10.45;;;9.18;;
57433;SDS011;43277;52.672;6.984;2023-07-20T05:42:15;12.48;;;7.82;;
57433;SDS011;43277;52.672;6.984;2023-07-20T05:44:41;11.55;;;9.07;;
57433;SDS011;43277;52.672;6.984;2023-07-20T05:47:07;14.93;;;10.13;;
57433;SDS011;43277;52.672;6.984;2023-07-20T05:49:34;10.43;;;9.18;;
57433;SDS011;43277;52.672;6.984;2023-07-20T05:52:00;9.55;;;7.28;;
57433;SDS011;43277;52.672;6.984;2023-07-20T05:54:26;8.07;;;6.32;;
57433;SDS011;43277;52.672;6.984;2023-07-20T05:56:52;10.50;;;7.97;;
57433;SDS011;43277;52.672;6.984;2023-07-20T05:59:18;11.98;;;7.75;;
57433;SDS011;43277;52.672;6.984;2023-07-20T06:01:44;9.25;;;6.70;;
57433;SDS011;43277;52.672;6.984;2023-07-20T06:04:11;9.85;;;7.22;;
57433;SDS011;43277;52.672;6.984;2023-07-20T06:06:36;8.60;;;5.82;;
57433;SDS011;43277;52.672;6.984;2023-07-20T06:09:02;11.25;;;6.35;;
57433;SDS011;43277;52.672;6.984;2023-07-20T06:11:29;12.13;;;7.22;;
57433;SDS011;43277;52.672;6.984;2023-07-20T06:13:56;9.55;;;4.97;;
57433;SDS011;43277;52.672;6.984;2023-07-20T06:16:22;9.27;;;5.55;;
57433;SDS011;43277;52.672;6.984;2023-07-20T06:18:47;8.20;;;4.65;;
57433;SDS011;43277;52.672;6.984;2023-07-20T06:21:13;7.85;;;3.50;;
57433;SDS011;43277;52.672;6.984;2023-07-20T06:23:39;9.73;;;4.28;;
57433;SDS011;43277;52.672;6.984;2023-07-20T06:26:05;6.15;;;2.78;;
57433;SDS011;43277;52.672;6.984;2023-07-20T06:28:32;4.97;;;2.92;;
57433;SDS011;43277;52.672;6.984;2023-07-20T06:31:02;5.60;;;2.30;;
57433;SDS011;43277;52.672;6.984;2023-07-20T06:33:28;5.00;;;2.50;;
57433;SDS011;43277;52.672;6.984;2023-07-20T06:35:53;7.40;;;2.70;;
57433;SDS011;43277;52.672;6.984;2023-07-20T06:38:19;7.43;;;2.60;;
57433;SDS011;43277;52.672;6.984;2023-07-20T06:40:46;4.60;;;2.00;;
57433;SDS011;43277;52.672;6.984;2023-07-20T06:43:12;6.50;;;2.30;;
57433;SDS011;43277;52.672;6.984;2023-07-20T06:45:37;6.00;;;1.90;;
57433;SDS011;43277;52.672;6.984;2023-07-20T06:48:03;6.70;;;2.53;;
57433;SDS011;43277;52.672;6.984;2023-07-20T06:50:29;6.25;;;2.00;;
57433;SDS011;43277;52.672;6.984;2023-07-20T06:52:55;3.97;;;1.67;;
57433;SDS011;43277;52.672;6.984;2023-07-20T06:55:20;5.88;;;2.15;;
57433;SDS011;43277;52.672;6.984;2023-07-20T06:57:46;7.47;;;1.63;;
57433;SDS011;43277;52.672;6.984;2023-07-20T07:00:12;6.38;;;1.60;;
57433;SDS011;43277;52.672;6.984;2023-07-20T07:02:38;5.20;;;1.50;;
57433;SDS011;43277;52.672;6.984;2023-07-20T07:05:04;4.47;;;1.65;;
57433;SDS011;43277;52.672;6.984;2023-07-20T07:07:30;6.10;;;1.70;;
57433;SDS011;43277;52.672;6.984;2023-07-20T07:09:56;4.60;;;1.50;;
57433;SDS011;43277;52.672;6.984;2023-07-20T07:12:21;5.57;;;1.48;;
57433;SDS011;43277;52.672;6.984;2023-07-20T07:14:47;7.57;;;1.40;;
57433;SDS011;43277;52.672;6.984;2023-07-20T07:17:13;4.90;;;1.30;;
57433;SDS011;43277;52.672;6.984;2023-07-20T07:19:39;7.13;;;1.50;;
57433;SDS011;43277;52.672;6.984;2023-07-20T07:22:05;3.85;;;1.10;;
57433;SDS011;43277;52.672;6.984;2023-07-20T07:24:31;5.18;;;1.15;;
57433;SDS011;43277;52.672;6.984;2023-07-20T07:27:00;4.60;;;1.00;;
57433;SDS011;43277;52.672;6.984;2023-07-20T07:29:26;5.95;;;1.00;;
57433;SDS011;43277;52.672;6.984;2023-07-20T07:31:52;5.10;;;0.90;;
57433;SDS011;43277;52.672;6.984;2023-07-20T07:34:17;4.07;;;0.90;;
57433;SDS011;43277;52.672;6.984;2023-07-20T07:36:43;4.97;;;1.20;;
57433;SDS011;43277;52.672;6.984;2023-07-20T07:39:09;4.95;;;1.23;;
57433;SDS011;43277;52.672;6.984;2023-07-20T07:41:35;6.68;;;1.25;;
57433;SDS011;43277;52.672;6.984;2023-07-20T07:44:01;5.07;;;1.00;;
57433;SDS011;43277;52.672;6.984;2023-07-20T07:46:26;6.07;;;0.93;;
57433;SDS011;43277;52.672;6.984;2023-07-20T07:48:52;4.75;;;1.05;;
57433;SDS011;43277;52.672;6.984;2023-07-20T07:51:18;4.07;;;1.10;;
57433;SDS011;43277;52.672;6.984;2023-07-20T07:53:45;5.00;;;1.05;;
57433;SDS011;43277;52.672;6.984;2023-07-20T07:56:11;5.50;;;1.20;;
57433;SDS011;43277;52.672;6.984;2023-07-20T07:58:37;6.03;;;1.10;;
57433;SDS011;43277;52.672;6.984;2023-07-20T08:01:03;5.13;;;0.93;;
57433;SDS011;43277;52.672;6.984;2023-07-20T08:03:29;5.03;;;1.13;;
57433;SDS011;43277;52.672;6.984;2023-07-20T08:05:55;4.72;;;1.10;;
57433;SDS011;43277;52.672;6.984;2023-07-20T08:08:20;5.03;;;1.00;;
57433;SDS011;43277;52.672;6.984;2023-07-20T08:10:47;4.85;;;1.00;;
57433;SDS011;43277;52.672;6.984;2023-07-20T08:13:12;4.93;;;0.80;;
57433;SDS011;43277;52.672;6.984;2023-07-20T08:15:38;5.60;;;1.17;;
57433;SDS011;43277;52.672;6.984;2023-07-20T08:18:04;5.57;;;1.00;;
57433;SDS011;43277;52.672;6.984;2023-07-20T08:20:30;3.50;;;0.93;;
57433;SDS011;43277;52.672;6.984;2023-07-20T08:22:57;5.45;;;1.20;;
57433;SDS011;43277;52.672;6.984;2023-07-20T08:25:25;4.53;;;1.00;;
57433;SDS011;43277;52.672;6.984;2023-07-20T08:27:51;5.10;;;1.02;;
57433;SDS011;43277;52.672;6.984;2023-07-20T08:30:17;6.47;;;1.58;;
57433;SDS011;43277;52.672;6.984;2023-07-20T08:32:43;5.72;;;1.20;;
57433;SDS011;43277;52.672;6.984;2023-07-20T08:35:08;7.50;;;1.17;;
57433;SDS011;43277;52.672;6.984;2023-07-20T08:37:34;5.53;;;1.00;;
57433;SDS011;43277;52.672;6.984;2023-07-20T08:40:00;4.32;;;1.05;;
57433;SDS011;43277;52.672;6.984;2023-07-20T08:42:26;4.35;;;0.90;;
57433;SDS011;43277;52.672;6.984;2023-07-20T08:44:52;5.32;;;1.02;;
57433;SDS011;43277;52.672;6.984;2023-07-20T08:47:20;4.75;;;1.13;;
57433;SDS011;43277;52.672;6.984;2023-07-20T08:49:48;5.03;;;0.90;;
57433;SDS011;43277;52.672;6.984;2023-07-20T08:52:14;4.80;;;1.10;;
57433;SDS011;43277;52.672;6.984;2023-07-20T08:54:40;4.43;;;1.10;;
57433;SDS011;43277;52.672;6.984;2023-07-20T08:57:05;3.28;;;0.77;;
57433;SDS011;43277;52.672;6.984;2023-07-20T08:59:32;5.50;;;1.10;;
57433;SDS011;43277;52.672;6.984;2023-07-20T09:02:01;4.88;;;1.23;;
57433;SDS011;43277;52.672;6.984;2023-07-20T09:04:29;3.95;;;0.90;;
57433;SDS011;43277;52.672;6.984;2023-07-20T09:06:54;2.75;;;0.77;;
57433;SDS011;43277;52.672;6.984;2023-07-20T09:09:22;4.78;;;0.93;;
57433;SDS011;43277;52.672;6.984;2023-07-20T09:11:48;6.78;;;1.00;;
57433;SDS011;43277;52.672;6.984;2023-07-20T09:14:14;4.70;;;1.00;;
57433;SDS011;43277;52.672;6.984;2023-07-20T09:16:50;4.68;;;0.93;;
57433;SDS011;43277;52.672;6.984;2023-07-20T09:19:18;4.75;;;0.90;;
57433;SDS011;43277;52.672;6.984;2023-07-20T09:21:50;4.25;;;0.90;;
57433;SDS011;43277;52.672;6.984;2023-07-20T09:24:17;5.60;;;1.00;;
57433;SDS011;43277;52.672;6.984;2023-07-20T09:26:44;4.53;;;0.80;;
57433;SDS011;43277;52.672;6.984;2023-07-20T09:29:13;5.07;;;1.00;;
57433;SDS011;43277;52.672;6.984;2023-07-20T09:31:39;4.68;;;1.10;;
57433;SDS011;43277;52.672;6.984;2023-07-20T09:34:08;3.75;;;0.82;;
57433;SDS011;43277;52.672;6.984;2023-07-20T09:36:34;4.63;;;0.80;;
57433;SDS011;43277;52.672;6.984;2023-07-20T09:39:01;4.55;;;0.90;;
57433;SDS011;43277;52.672;6.984;2023-07-20T09:41:29;4.40;;;1.00;;
57433;SDS011;43277;52.672;6.984;2023-07-20T09:43:54;4.53;;;0.90;;
57433;SDS011;43277;52.672;6.984;2023-07-20T09:46:20;4.18;;;0.70;;
57433;SDS011;43277;52.672;6.984;2023-07-20T09:48:52;4.35;;;0.80;;
57433;SDS011;43277;52.672;6.984;2023-07-20T09:51:20;5.15;;;1.00;;
57433;SDS011;43277;52.672;6.984;2023-07-20T09:53:48;4.18;;;0.95;;
57433;SDS011;43277;52.672;6.984;2023-07-20T09:56:14;6.13;;;1.00;;
57433;SDS011;43277;52.672;6.984;2023-07-20T09:58:42;4.07;;;0.80;;
57433;SDS011;43277;52.672;6.984;2023-07-20T10:01:10;4.82;;;0.88;;
57433;SDS011;43277;52.672;6.984;2023-07-20T10:03:39;5.60;;;1.10;;
57433;SDS011;43277;52.672;6.984;2023-07-20T10:06:08;5.55;;;0.90;;
57433;SDS011;43277;52.672;6.984;2023-07-20T10:08:37;4.22;;;1.10;;
57433;SDS011;43277;52.672;6.984;2023-07-20T10:11:07;5.85;;;1.35;;
57433;SDS011;43277;52.672;6.984;2023-07-20T10:13:36;4.50;;;1.17;;
57433;SDS011;43277;52.672;6.984;2023-07-20T10:16:05;4.70;;;0.90;;
57433;SDS011;43277;52.672;6.984;2023-07-20T10:21:30;3.92;;;0.90;;
57433;SDS011;43277;52.672;6.984;2023-07-20T10:24:00;3.85;;;0.82;;
57433;SDS011;43277;52.672;6.984;2023-07-20T10:26:27;5.75;;;0.90;;
57433;SDS011;43277;52.672;6.984;2023-07-20T10:28:53;6.20;;;0.80;;
57433;SDS011;43277;52.672;6.984;2023-07-20T10:31:19;4.22;;;1.00;;
57433;SDS011;43277;52.672;6.984;2023-07-20T10:33:46;6.20;;;1.02;;
57433;SDS011;43277;52.672;6.984;2023-07-20T10:36:12;5.03;;;1.05;;
57433;SDS011;43277;52.672;6.984;2023-07-20T10:41:16;3.00;;;0.77;;
57433;SDS011;43277;52.672;6.984;2023-07-20T10:44:08;3.35;;;1.00;;
57433;SDS011;43277;52.672;6.984;2023-07-20T10:49:04;3.53;;;0.80;;
57433;SDS011;43277;52.672;6.984;2023-07-20T10:51:39;5.28;;;1.00;;
57433;SDS011;43277;52.672;6.984;2023-07-20T10:54:07;4.75;;;1.13;;
57433;SDS011;43277;52.672;6.984;2023-07-20T10:56:54;5.07;;;1.20;;
57433;SDS011;43277;52.672;6.984;2023-07-20T11:01:50;4.45;;;0.93;;
57433;SDS011;43277;52.672;6.984;2023-07-20T11:04:42;4.35;;;1.00;;
57433;SDS011;43277;52.672;6.984;2023-07-20T11:07:10;6.57;;;1.13;;
57433;SDS011;43277;52.672;6.984;2023-07-20T11:09:39;5.77;;;1.10;;
57433;SDS011;43277;52.672;6.984;2023-07-20T11:12:13;5.65;;;1.00;;
57433;SDS011;43277;52.672;6.984;2023-07-20T11:14:40;7.30;;;1.20;;
57433;SDS011;43277;52.672;6.984;2023-07-20T11:17:18;3.95;;;1.00;;
57433;SDS011;43277;52.672;6.984;2023-07-20T11:19:50;4.18;;;1.02;;
57433;SDS011;43277;52.672;6.984;2023-07-20T11:22:21;5.57;;;1.17;;
57433;SDS011;43277;52.672;6.984;2023-07-20T11:24:47;4.80;;;1.45;;
57433;SDS011;43277;52.672;6.984;2023-07-20T11:27:16;4.70;;;1.20;;
57433;SDS011;43277;52.672;6.984;2023-07-20T11:29:45;8.05;;;1.42;;
57433;SDS011;43277;52.672;6.984;2023-07-20T11:32:10;4.55;;;1.40;;
57433;SDS011;43277;52.672;6.984;2023-07-20T11:34:36;4.85;;;1.25;;
57433;SDS011;43277;52.672;6.984;2023-07-20T11:37:02;4.68;;;1.15;;
57433;SDS011;43277;52.672;6.984;2023-07-20T11:39:28;4.25;;;1.35;;
57433;SDS011;43277;52.672;6.984;2023-07-20T11:41:54;3.85;;;0.98;;
57433;SDS011;43277;52.672;6.984;2023-07-20T11:44:22;3.65;;;1.00;;
57433;SDS011;43277;52.672;6.984;2023-07-20T11:46:58;4.13;;;1.08;;
57433;SDS011;43277;52.672;6.984;2023-07-20T11:49:29;4.60;;;1.10;;
57433;SDS011;43277;52.672;6.984;2023-07-20T11:51:55;3.55;;;0.95;;
57433;SDS011;43277;52.672;6.984;2023-07-20T11:54:22;3.42;;;1.05;;
57433;SDS011;43277;52.672;6.984;2023-07-20T11:56:53;4.63;;;1.30;;
57433;SDS011;43277;52.672;6.984;2023-07-20T11:59:25;3.80;;;1.00;;
57433;SDS011;43277;52.672;6.984;2023-07-20T12:01:50;6.68;;;1.15;;
57433;SDS011;43277;52.672;6.984;2023-07-20T12:04:17;4.70;;;1.08;;
57433;SDS011;43277;52.672;6.984;2023-07-20T12:06:44;5.78;;;1.40;;
57433;SDS011;43277;52.672;6.984;2023-07-20T12:09:15;4.03;;;1.25;;
57433;SDS011;43277;52.672;6.984;2023-07-20T12:11:42;5.45;;;1.20;;
57433;SDS011;43277;52.672;6.984;2023-07-20T12:14:10;5.90;;;1.02;;
57433;SDS011;43277;52.672;6.984;2023-07-20T12:16:36;5.10;;;1.30;;
57433;SDS011;43277;52.672;6.984;2023-07-20T12:19:06;4.15;;;1.20;;
57433;SDS011;43277;52.672;6.984;2023-07-20T12:21:36;4.22;;;1.23;;
57433;SDS011;43277;52.672;6.984;2023-07-20T12:24:03;4.07;;;1.27;;
57433;SDS011;43277;52.672;6.984;2023-07-20T12:26:29;4.40;;;1.40;;
57433;SDS011;43277;52.672;6.984;2023-07-20T12:28:57;4.25;;;1.20;;
57433;SDS011;43277;52.672;6.984;2023-07-20T12:31:23;5.85;;;1.10;;
57433;SDS011;43277;52.672;6.984;2023-07-20T12:33:50;3.70;;;0.93;;
57433;SDS011;43277;52.672;6.984;2023-07-20T12:36:16;3.35;;;0.70;;
57433;SDS011;43277;52.672;6.984;2023-07-20T12:38:42;3.72;;;0.70;;
57433;SDS011;43277;52.672;6.984;2023-07-20T12:41:09;3.42;;;0.70;;
57433;SDS011;43277;52.672;6.984;2023-07-20T12:43:42;3.17;;;0.80;;
57433;SDS011;43277;52.672;6.984;2023-07-20T12:46:09;3.42;;;0.80;;
57433;SDS011;43277;52.672;6.984;2023-07-20T12:48:37;2.05;;;0.60;;
57433;SDS011;43277;52.672;6.984;2023-07-20T12:51:05;3.78;;;0.98;;
57433;SDS011;43277;52.672;6.984;2023-07-20T12:53:31;4.40;;;0.80;;
57433;SDS011;43277;52.672;6.984;2023-07-20T12:55:57;2.80;;;0.77;;
57433;SDS011;43277;52.672;6.984;2023-07-20T12:58:26;4.25;;;0.90;;
57433;SDS011;43277;52.672;6.984;2023-07-20T13:00:52;2.83;;;0.68;;
57433;SDS011;43277;52.672;6.984;2023-07-20T13:03:18;4.13;;;1.00;;
57433;SDS011;43277;52.672;6.984;2023-07-20T13:05:44;5.50;;;0.88;;
57433;SDS011;43277;52.672;6.984;2023-07-20T13:08:10;2.33;;;0.70;;
57433;SDS011;43277;52.672;6.984;2023-07-20T13:10:37;3.92;;;0.90;;
57433;SDS011;43277;52.672;6.984;2023-07-20T13:13:03;3.67;;;0.77;;
57433;SDS011;43277;52.672;6.984;2023-07-20T13:15:30;3.08;;;1.00;;
57433;SDS011;43277;52.672;6.984;2023-07-20T13:17:58;4.38;;;0.68;;
57433;SDS011;43277;52.672;6.984;2023-07-20T13:20:24;3.50;;;0.90;;
57433;SDS011;43277;52.672;6.984;2023-07-20T13:22:51;2.85;;;0.80;;
57433;SDS011;43277;52.672;6.984;2023-07-20T13:25:17;4.88;;;0.80;;
57433;SDS011;43277;52.672;6.984;2023-07-20T13:27:43;3.40;;;1.05;;
57433;SDS011;43277;52.672;6.984;2023-07-20T13:30:09;5.85;;;1.00;;
57433;SDS011;43277;52.672;6.984;2023-07-20T13:32:41;3.25;;;0.90;;
57433;SDS011;43277;52.672;6.984;2023-07-20T13:35:13;4.85;;;0.90;;
57433;SDS011;43277;52.672;6.984;2023-07-20T13:37:39;5.85;;;0.90;;
57433;SDS011;43277;52.672;6.984;2023-07-20T13:40:05;4.57;;;1.02;;
57433;SDS011;43277;52.672;6.984;2023-07-20T13:42:31;2.25;;;0.60;;
57433;SDS011;43277;52.672;6.984;2023-07-20T13:44:58;3.55;;;0.73;;
57433;SDS011;43277;52.672;6.984;2023-07-20T13:47:23;2.95;;;0.90;;
57433;SDS011;43277;52.672;6.984;2023-07-20T13:49:49;3.72;;;0.85;;
57433;SDS011;43277;52.672;6.984;2023-07-20T13:52:15;3.72;;;0.80;;
57433;SDS011;43277;52.672;6.984;2023-07-20T13:54:40;3.38;;;0.90;;
57433;SDS011;43277;52.672;6.984;2023-07-20T13:57:06;3.08;;;0.95;;
57433;SDS011;43277;52.672;6.984;2023-07-20T13:59:32;5.28;;;1.00;;
57433;SDS011;43277;52.672;6.984;2023-07-20T14:01:57;3.97;;;0.90;;
57433;SDS011;43277;52.672;6.984;2023-07-20T14:04:23;3.58;;;0.90;;
57433;SDS011;43277;52.672;6.984;2023-07-20T14:06:49;2.53;;;0.73;;
57433;SDS011;43277;52.672;6.984;2023-07-20T14:09:16;2.92;;;0.80;;
57433;SDS011;43277;52.672;6.984;2023-07-20T14:11:42;3.13;;;0.80;;
57433;SDS011;43277;52.672;6.984;2023-07-20T14:14:07;2.95;;;0.80;;
57433;SDS011;43277;52.672;6.984;2023-07-20T14:16:33;2.55;;;0.80;;
57433;SDS011;43277;52.672;6.984;2023-07-20T14:18:58;3.25;;;0.80;;
57433;SDS011;43277;52.672;6.984;2023-07-20T14:21:24;4.63;;;0.70;;
57433;SDS011;43277;52.672;6.984;2023-07-20T14:23:51;4.97;;;0.80;;
57433;SDS011;43277;52.672;6.984;2023-07-20T14:26:20;4.90;;;0.90;;
57433;SDS011;43277;52.672;6.984;2023-07-20T14:28:46;4.72;;;1.00;;
57433;SDS011;43277;52.672;6.984;2023-07-20T14:31:12;3.17;;;0.68;;
57433;SDS011;43277;52.672;6.984;2023-07-20T14:33:38;4.35;;;0.73;;
57433;SDS011;43277;52.672;6.984;2023-07-20T14:36:04;5.40;;;0.90;;
57433;SDS011;43277;52.672;6.984;2023-07-20T14:38:30;2.95;;;0.70;;
57433;SDS011;43277;52.672;6.984;2023-07-20T14:40:56;3.75;;;0.70;;
57433;SDS011;43277;52.672;6.984;2023-07-20T14:43:22;3.13;;;0.80;;
57433;SDS011;43277;52.672;6.984;2023-07-20T14:45:48;5.28;;;0.73;;
57433;SDS011;43277;52.672;6.984;2023-07-20T14:48:14;3.15;;;0.75;;
57433;SDS011;43277;52.672;6.984;2023-07-20T14:50:39;2.47;;;0.77;;
57433;SDS011;43277;52.672;6.984;2023-07-20T14:53:05;3.28;;;0.70;;
57433;SDS011;43277;52.672;6.984;2023-07-20T14:55:32;2.47;;;0.70;;
57433;SDS011;43277;52.672;6.984;2023-07-20T14:57:58;3.65;;;0.75;;
57433;SDS011;43277;52.672;6.984;2023-07-20T15:00:24;3.25;;;0.82;;
57433;SDS011;43277;52.672;6.984;2023-07-20T15:02:50;3.53;;;0.88;;
57433;SDS011;43277;52.672;6.984;2023-07-20T15:05:20;5.43;;;1.58;;
57433;SDS011;43277;52.672;6.984;2023-07-20T15:07:50;5.97;;;1.20;;